Saturday, November 18, 2017, 6:14 PM EST
Back to Local

KHFD, Hartford-brainard Airport

Location: Hartford, CT, United States Lat: 41.733
Local Time: 6:14 PM EST (23:14 GMT) Lon: -72.65
Time Zone: US/Eastern Elev: 19 ft

Show me the last for .
Show Decoded

2017-11-18 17:53 METAR KHFD 182253Z 03006KT 10SM -RA SCT031 OVC055 04/01 A2966 RMK AO2 RAB33
                 SLP042 P0000 T00440006 =
2017-11-18 16:53 METAR KHFD 182153Z 00000KT 10SM BKN060 OVC075 06/00 A2967 RMK AO2 SLP046
                 T00560000 =
2017-11-18 15:53 METAR KHFD 182053Z 35003KT 10SM SCT070 BKN090 BKN120 07/01 A2968 RMK AO2 RAE45
                 SLP051 P0000 60000 T00670011 56042 =
2017-11-18 14:53 METAR KHFD 181953Z 00000KT 10SM -RA OVC095 07/M01 A2970 RMK AO2 RAB39 SLP057
                 P0000 T00671011 =
2017-11-18 13:53 METAR KHFD 181853Z 00000KT 10SM CLR 06/M02 A2976 RMK AO2 SLP076 T00611022 =
2017-11-18 12:53 METAR KHFD 181753Z 00000KT 10SM CLR 05/M04 A2981 RMK AO2 SLP093 T00501039 10050
                 21044 56047 =
2017-11-18 11:53 METAR KHFD 181653Z 24003KT 10SM SCT110 04/M06 A2985 RMK AO2 SLP107 T00391056 =
2017-11-18 10:53 METAR KHFD 181553Z 00000KT 10SM CLR 02/M07 A2990 RMK AO2 PRESFR SLP125 T00221072
                 =
2017-11-18 09:53 METAR KHFD 181453Z 00000KT 10SM CLR 01/M07 A2995 RMK AO2 SLP140 T00111067 56017
                 =
2017-11-18 08:53 METAR KHFD 181353Z 16003KT 10SM CLR M01/M06 A2995 RMK AO2 SLP141 T10111056 =
2017-11-18 07:53 METAR KHFD 181253Z 00000KT 10SM CLR M02/M06 A2999 RMK AO2 SLP155 T10171061 =
2017-11-18 06:53 METAR KHFD 181153Z 00000KT 9SM CLR M04/M06 A3000 RMK AO2 SNB17E49 SLP157 P0000
                 60000 T10441061 11017 21044 56005 =
2017-11-18 05:53 METAR KHFD 181053Z 00000KT 10SM CLR M04/M06 A3000 RMK AO2 SLP157 T10441061 =
2017-11-18 04:53 METAR KHFD 180953Z AUTO 00000KT 10SM CLR M04/M07 A3000 RMK AO2 SLP158 T10391067
                 =
2017-11-18 03:53 METAR KHFD 180853Z AUTO 16004KT 10SM CLR M03/M07 A3001 RMK AO2 SLP162 T10331067
                 58006 =
2017-11-18 02:53 METAR KHFD 180753Z AUTO 00000KT 10SM CLR M03/M06 A3001 RMK AO2 SLP162 T10281056
                 =
2017-11-18 01:53 METAR KHFD 180653Z AUTO 19003KT 10SM CLR M02/M06 A3004 RMK AO2 SLP172 T10221056
                 =
2017-11-18 00:53 METAR KHFD 180553Z AUTO 00000KT 10SM CLR M03/M07 A3003 RMK AO2 SLP168 T10281067
                 10033 21028 58002 =
2017-11-17 23:53 METAR KHFD 180453Z 30004KT 10SM CLR 01/M08 A3005 RMK AO2 SLP175 T00061083
                 400721028 =
2017-11-17 22:53 METAR KHFD 180353Z 00000KT 10SM CLR M02/M06 A3004 RMK AO2 SLP171 T10221056 =
2017-11-17 21:53 METAR KHFD 180253Z 00000KT 10SM CLR M02/M06 A3004 RMK AO2 SLP171 T10171061 58003
                 =
2017-11-17 20:53 METAR KHFD 180153Z 00000KT 10SM CLR M01/M07 A3004 RMK AO2 SLP172 T10111067 =
2017-11-17 19:53 METAR KHFD 180053Z 00000KT 10SM CLR 02/M09 A3006 RMK AO2 SLP178 T00221094 =
2017-11-17 18:53 METAR KHFD 172353Z 31004KT 10SM CLR 03/M09 A3004 RMK AO2 SLP173 T00331094 10072
                 20033 50006 =

Support USWX by starting your Amazon purchase here.